createdAt,value
2018-10-03T00:00:09.103Z,13.62
2018-10-03T00:02:37.206Z,13.65
2018-10-03T00:05:05.180Z,13.61
2018-10-03T00:07:33.152Z,13.48
2018-10-03T00:10:01.185Z,13.55
2018-10-03T00:12:29.109Z,13.63
2018-10-03T00:14:57.116Z,13.56
2018-10-03T00:17:26.210Z,13.40
2018-10-03T00:19:57.889Z,13.43
2018-10-03T00:22:25.826Z,13.38
2018-10-03T00:24:54.007Z,13.45
2018-10-03T00:27:21.926Z,13.19
2018-10-03T00:29:49.826Z,13.43
2018-10-03T00:32:17.924Z,13.49
2018-10-03T00:34:45.855Z,13.51
2018-10-03T00:37:13.854Z,13.36
2018-10-03T00:39:41.810Z,13.46
2018-10-03T00:42:09.727Z,13.56
2018-10-03T00:44:37.684Z,13.42
2018-10-03T00:47:05.718Z,13.44
2018-10-03T00:49:33.746Z,13.43
2018-10-03T00:52:01.686Z,13.36
2018-10-03T00:54:29.593Z,13.46
2018-10-03T00:56:57.656Z,13.56
2018-10-03T00:59:26.734Z,13.73
2018-10-03T01:01:54.659Z,13.75
2018-10-03T01:04:22.784Z,13.84
2018-10-03T01:06:50.793Z,13.74
2018-10-03T01:09:18.743Z,13.98
2018-10-03T01:11:46.728Z,13.98
2018-10-03T01:14:14.661Z,13.94
2018-10-03T01:16:42.562Z,13.68
2018-10-03T01:19:10.604Z,13.58
2018-10-03T01:21:38.624Z,13.71
2018-10-03T01:24:06.650Z,13.79
2018-10-03T01:26:34.568Z,13.73
2018-10-03T01:29:02.526Z,13.75
2018-10-03T01:31:30.396Z,13.86
2018-10-03T01:33:58.368Z,13.72
2018-10-03T01:36:26.456Z,13.69
2018-10-03T01:38:54.353Z,13.87
2018-10-03T01:41:22.278Z,13.70
2018-10-03T01:43:50.212Z,13.95
2018-10-03T01:46:18.078Z,13.94
2018-10-03T01:48:46.122Z,13.98
2018-10-03T01:51:14.090Z,14.11
2018-10-03T01:53:42.086Z,14.11
2018-10-03T01:56:10.214Z,13.60
2018-10-03T01:58:38.277Z,13.58
2018-10-03T02:01:06.219Z,13.52
2018-10-03T02:03:34.113Z,13.69
2018-10-03T02:06:02.067Z,13.79
2018-10-03T02:08:29.926Z,13.80
2018-10-03T02:10:57.853Z,13.90
2018-10-03T02:13:25.820Z,13.81
2018-10-03T02:15:53.718Z,13.56
2018-10-03T02:18:21.670Z,13.79
2018-10-03T02:20:49.562Z,13.73
2018-10-03T02:23:17.502Z,13.87
2018-10-03T02:25:45.538Z,13.68
2018-10-03T02:28:13.705Z,13.83
2018-10-03T02:30:41.656Z,13.82
2018-10-03T02:33:09.690Z,13.71
2018-10-03T02:35:37.717Z,13.89
2018-10-03T02:38:05.898Z,13.57
2018-10-03T02:40:34.002Z,13.60
2018-10-03T02:43:03.053Z,13.64
2018-10-03T02:45:31.227Z,13.57
2018-10-03T02:47:59.117Z,13.80
2018-10-03T02:50:27.115Z,13.60
2018-10-03T02:52:55.076Z,13.68
2018-10-03T02:55:23.328Z,13.55
2018-10-03T02:57:51.293Z,13.64
2018-10-03T03:00:19.472Z,13.59
2018-10-03T03:02:47.490Z,13.42
2018-10-03T03:05:15.465Z,13.61
2018-10-03T03:07:45.545Z,13.31
2018-10-03T03:10:13.553Z,13.52
2018-10-03T03:12:41.528Z,13.07
2018-10-03T03:15:09.666Z,13.18
2018-10-03T03:17:37.718Z,12.93
2018-10-03T03:20:05.665Z,13.13
2018-10-03T03:22:33.736Z,12.92
2018-10-03T03:25:01.709Z,12.80
2018-10-03T03:27:29.783Z,12.73
2018-10-03T03:29:57.760Z,13.05
2018-10-03T03:32:26.269Z,13.05
2018-10-03T03:34:54.312Z,13.09
2018-10-03T03:37:22.322Z,13.34
2018-10-03T03:39:50.524Z,13.38
2018-10-03T03:42:18.402Z,13.36
2018-10-03T03:44:46.319Z,13.54
2018-10-03T03:47:14.319Z,13.22
2018-10-03T03:49:42.298Z,12.97
2018-10-03T03:52:10.337Z,13.15
2018-10-03T03:54:38.249Z,13.29
2018-10-03T03:57:06.349Z,13.22
2018-10-03T03:59:35.401Z,13.33
2018-10-03T04:02:03.402Z,13.34
2018-10-03T04:04:33.296Z,13.45
2018-10-03T04:07:01.292Z,13.34
2018-10-03T04:09:29.264Z,13.13
2018-10-03T04:11:57.319Z,13.10
2018-10-03T04:14:25.262Z,13.19
2018-10-03T04:16:53.208Z,13.20
2018-10-03T04:19:21.125Z,13.28
2018-10-03T04:21:49.108Z,13.22
2018-10-03T04:24:17.115Z,13.27
2018-10-03T04:26:45.141Z,13.10
2018-10-03T04:29:13.190Z,12.70
2018-10-03T04:31:41.065Z,12.96
2018-10-03T04:34:08.981Z,13.21
2018-10-03T04:36:37.061Z,13.21
2018-10-03T04:39:06.541Z,12.95
2018-10-03T04:41:35.036Z,12.95
2018-10-03T04:44:03.028Z,13.10
2018-10-03T04:46:31.306Z,13.18
2018-10-03T04:48:59.411Z,12.99
2018-10-03T04:51:28.208Z,12.87
2018-10-03T04:53:56.151Z,13.11
2018-10-03T04:56:25.946Z,12.88
2018-10-03T04:58:53.896Z,12.87
2018-10-03T05:01:21.913Z,12.75
2018-10-03T05:03:49.977Z,12.91
2018-10-03T05:06:18.000Z,13.07
2018-10-03T05:08:45.903Z,13.12
2018-10-03T05:11:13.951Z,12.95
2018-10-03T05:13:42.013Z,12.99
2018-10-03T05:16:09.975Z,13.10
2018-10-03T05:18:37.945Z,13.25
2018-10-03T05:21:06.112Z,13.51
2018-10-03T05:23:34.108Z,12.95
2018-10-03T05:26:02.140Z,13.42
2018-10-03T05:28:30.244Z,12.91
2018-10-03T05:30:58.270Z,13.19
2018-10-03T05:33:26.235Z,13.12
2018-10-03T05:35:54.191Z,12.83
2018-10-03T05:38:22.119Z,12.84
2018-10-03T05:40:50.040Z,12.85
2018-10-03T05:43:17.909Z,12.46
2018-10-03T05:45:45.884Z,12.65
2018-10-03T05:48:13.896Z,12.77
2018-10-03T05:50:41.777Z,11.89
2018-10-03T05:53:09.878Z,12.83
2018-10-03T05:55:37.889Z,12.70
2018-10-03T05:58:05.983Z,12.74
2018-10-03T06:00:34.772Z,12.53
2018-10-03T06:03:02.724Z,12.70
2018-10-03T06:05:30.902Z,12.75
2018-10-03T06:07:58.869Z,12.74
2018-10-03T06:10:27.519Z,12.96
2018-10-03T06:12:55.459Z,13.07
2018-10-03T06:15:23.761Z,12.83
2018-10-03T06:17:51.748Z,12.62
2018-10-03T06:20:20.040Z,13.16
2018-10-03T06:22:48.038Z,13.47
2018-10-03T06:25:16.115Z,13.16
2018-10-03T06:27:44.395Z,13.45
2018-10-03T06:30:12.472Z,13.25
2018-10-03T06:32:40.509Z,13.37
2018-10-03T06:35:09.570Z,13.39
2018-10-03T06:37:37.614Z,13.26
2018-10-03T06:40:06.110Z,14.09
2018-10-03T06:42:34.227Z,14.37
2018-10-03T06:45:02.481Z,13.74
2018-10-03T06:47:30.568Z,13.63
2018-10-03T06:49:58.683Z,13.62
2018-10-03T06:52:26.779Z,13.64
2018-10-03T06:54:54.742Z,13.73
2018-10-03T06:57:22.730Z,13.40
2018-10-03T06:59:50.747Z,13.38
2018-10-03T07:02:18.737Z,14.06
2018-10-03T07:04:46.905Z,14.80
2018-10-03T07:07:14.943Z,14.78
2018-10-03T07:09:43.053Z,14.17
2018-10-03T07:12:12.977Z,14.21
2018-10-03T07:14:41.489Z,15.38
2018-10-03T07:17:09.504Z,15.28
2018-10-03T07:19:37.558Z,15.80
2018-10-03T07:22:05.604Z,15.23
2018-10-03T07:24:33.825Z,15.51
2018-10-03T07:27:01.774Z,15.27
2018-10-03T07:29:29.964Z,15.60
2018-10-03T07:32:01.828Z,15.95
2018-10-03T07:34:29.902Z,16.13
2018-10-03T07:36:57.896Z,16.32
2018-10-03T07:39:25.816Z,16.45
2018-10-03T07:41:53.835Z,15.72
2018-10-03T07:44:21.773Z,15.83
2018-10-03T07:46:49.688Z,16.58
2018-10-03T07:49:17.860Z,16.12
2018-10-03T07:51:45.824Z,15.57
2018-10-03T07:54:13.887Z,14.93
2018-10-03T07:56:42.276Z,15.95
2018-10-03T07:59:10.436Z,16.14
2018-10-03T08:01:38.520Z,17.04
2018-10-03T08:04:06.596Z,17.21
2018-10-03T08:06:34.580Z,16.33
2018-10-03T08:09:02.710Z,16.66
2018-10-03T08:11:30.717Z,17.30
2018-10-03T08:13:58.597Z,17.75
2018-10-03T08:16:26.876Z,17.98
2018-10-03T08:18:54.981Z,18.16
2018-10-03T08:21:23.003Z,16.35
2018-10-03T08:23:51.013Z,15.91
2018-10-03T08:26:19.162Z,16.66
2018-10-03T08:28:47.200Z,16.18
2018-10-03T08:31:15.174Z,15.80
2018-10-03T08:33:43.250Z,16.98
2018-10-03T08:36:11.207Z,17.63
2018-10-03T08:38:39.152Z,17.26
2018-10-03T08:41:07.215Z,17.07
2018-10-03T08:43:36.261Z,16.49
2018-10-03T08:46:04.353Z,17.02
2018-10-03T08:48:32.392Z,16.43
2018-10-03T08:51:00.453Z,16.02
2018-10-03T08:53:28.650Z,15.69
2018-10-03T08:55:57.318Z,16.00
2018-10-03T08:58:25.416Z,16.72
2018-10-03T09:00:53.366Z,16.88
2018-10-03T09:03:21.475Z,17.74
2018-10-03T09:05:49.656Z,17.39
2018-10-03T09:08:17.821Z,17.79
2018-10-03T09:10:47.165Z,18.23
2018-10-03T09:13:15.812Z,18.36
2018-10-03T09:15:43.767Z,19.08
2018-10-03T09:18:11.703Z,18.94
2018-10-03T09:20:40.035Z,18.09
2018-10-03T09:23:10.051Z,17.79
2018-10-03T09:25:37.999Z,17.63
2018-10-03T09:28:05.967Z,17.59
2018-10-03T09:30:34.010Z,17.75
2018-10-03T09:33:02.317Z,18.27
2018-10-03T09:35:30.435Z,17.58
2018-10-03T09:37:58.354Z,18.59
2018-10-03T09:40:27.236Z,18.93
2018-10-03T09:42:55.403Z,18.79
2018-10-03T09:45:23.674Z,17.73
2018-10-03T09:47:53.270Z,18.53
2018-10-03T09:50:22.213Z,18.61
2018-10-03T09:52:50.498Z,19.05
2018-10-03T09:55:18.984Z,19.00
2018-10-03T09:57:47.076Z,19.39
2018-10-03T10:00:19.894Z,18.02
2018-10-03T10:02:47.971Z,17.77
2018-10-03T10:05:15.922Z,18.72
2018-10-03T10:07:43.985Z,18.47
2018-10-03T10:10:12.022Z,18.92
2018-10-03T10:12:40.220Z,19.25
2018-10-03T10:15:08.902Z,18.68
2018-10-03T10:17:36.935Z,18.85
2018-10-03T10:20:04.962Z,18.50
2018-10-03T10:22:32.982Z,18.54
2018-10-03T10:25:00.996Z,19.00
2018-10-03T10:27:29.769Z,18.76
2018-10-03T10:29:58.804Z,19.02
2018-10-03T10:32:29.199Z,19.45
2018-10-03T10:34:57.208Z,19.85
2018-10-03T10:37:25.390Z,18.70
2018-10-03T10:39:53.397Z,18.91
2018-10-03T10:42:25.847Z,18.92
2018-10-03T10:44:53.850Z,19.34
2018-10-03T10:47:23.898Z,19.60
2018-10-03T10:49:52.145Z,19.32
2018-10-03T10:52:20.383Z,19.03
2018-10-03T10:54:48.423Z,20.14
2018-10-03T10:57:17.887Z,20.42
2018-10-03T10:59:46.029Z,20.66
2018-10-03T11:02:15.061Z,20.70
2018-10-03T11:04:43.102Z,20.70
2018-10-03T11:07:11.221Z,20.90
2018-10-03T11:09:39.339Z,20.92
2018-10-03T11:12:07.757Z,20.90
2018-10-03T11:14:35.835Z,20.84
2018-10-03T11:17:04.102Z,21.08
2018-10-03T11:19:32.523Z,21.43
2018-10-03T11:22:00.538Z,21.61
2018-10-03T11:24:29.034Z,21.08
2018-10-03T11:26:57.782Z,20.79
2018-10-03T11:29:28.014Z,20.87
2018-10-03T11:31:56.225Z,21.15
2018-10-03T11:34:26.949Z,20.38
2018-10-03T11:36:55.798Z,20.93
2018-10-03T11:39:23.891Z,21.27
2018-10-03T11:41:51.901Z,21.16
2018-10-03T11:44:20.172Z,20.48
2018-10-03T11:46:48.152Z,20.48
2018-10-03T11:49:16.255Z,20.33
2018-10-03T11:51:44.407Z,20.65
2018-10-03T11:54:12.414Z,20.28
2018-10-03T11:56:41.192Z,20.70
2018-10-03T11:59:09.239Z,20.88
2018-10-03T12:01:39.298Z,21.07
2018-10-03T12:04:07.494Z,21.11
2018-10-03T12:06:35.724Z,20.65
2018-10-03T12:09:05.765Z,21.08
2018-10-03T12:11:34.604Z,20.92
2018-10-03T12:14:02.720Z,20.82
2018-10-03T12:16:31.574Z,21.44
2018-10-03T12:18:59.742Z,21.41
2018-10-03T12:21:27.904Z,21.70
2018-10-03T12:23:56.060Z,20.93
2018-10-03T12:26:24.162Z,21.24
2018-10-03T12:28:52.514Z,21.36
2018-10-03T12:31:20.800Z,22.31
2018-10-03T12:33:49.122Z,22.15
2018-10-03T12:36:17.234Z,21.75
2018-10-03T12:38:46.315Z,21.70
2018-10-03T12:41:14.521Z,22.38
2018-10-03T12:43:42.396Z,22.69
2018-10-03T12:46:11.267Z,22.13
2018-10-03T12:48:39.217Z,22.10
2018-10-03T12:51:07.376Z,22.35
2018-10-03T12:53:35.796Z,21.87
2018-10-03T12:56:05.922Z,21.52
2018-10-03T12:58:33.958Z,21.76
2018-10-03T13:01:03.388Z,22.08
2018-10-03T13:03:34.333Z,22.15
2018-10-03T13:06:02.374Z,21.91
2018-10-03T13:08:30.336Z,22.00
2018-10-03T13:10:58.405Z,21.77
2018-10-03T13:13:26.680Z,21.86
2018-10-03T13:15:54.647Z,21.78
2018-10-03T13:18:22.584Z,22.12
2018-10-03T13:20:50.670Z,21.58
2018-10-03T13:23:22.496Z,21.73
2018-10-03T13:25:50.679Z,22.04
2018-10-03T13:28:18.614Z,22.17
2018-10-03T13:30:46.763Z,22.93
2018-10-03T13:33:14.726Z,22.22
2018-10-03T13:35:43.187Z,22.63
2018-10-03T13:38:11.262Z,22.39
2018-10-03T13:40:39.308Z,22.30
2018-10-03T13:43:11.187Z,22.03
2018-10-03T13:45:39.246Z,22.52
2018-10-03T13:48:07.305Z,22.72
2018-10-03T13:50:35.496Z,22.76
2018-10-03T13:53:04.257Z,22.63
2018-10-03T13:55:33.128Z,22.49
2018-10-03T13:58:01.824Z,22.29
2018-10-03T14:00:31.093Z,22.07
2018-10-03T14:02:59.362Z,21.81
2018-10-03T14:05:27.764Z,22.03
2018-10-03T14:07:55.750Z,22.19
2018-10-03T14:10:24.203Z,21.84
2018-10-03T14:12:52.140Z,21.83
2018-10-03T14:15:23.823Z,21.70
2018-10-03T14:17:51.941Z,21.52
2018-10-03T14:20:20.357Z,21.27
2018-10-03T14:22:48.316Z,21.33
2018-10-03T14:25:16.470Z,21.32
2018-10-03T14:27:44.678Z,21.54
2018-10-03T14:30:12.680Z,21.50
2018-10-03T14:32:40.981Z,21.46
2018-10-03T14:35:09.279Z,20.91
2018-10-03T14:37:37.260Z,21.29
2018-10-03T14:40:05.493Z,21.05
2018-10-03T14:42:33.570Z,20.93
2018-10-03T14:45:01.913Z,20.73
2018-10-03T14:47:29.853Z,20.92
2018-10-03T14:49:57.898Z,21.25
2018-10-03T14:52:26.028Z,20.79
2018-10-03T14:54:54.113Z,20.27
2018-10-03T14:57:22.134Z,20.47
2018-10-03T14:59:50.318Z,20.71
2018-10-03T15:02:18.327Z,20.91
2018-10-03T15:04:46.379Z,20.99
2018-10-03T15:07:14.288Z,20.69
2018-10-03T15:09:42.294Z,20.63
2018-10-03T15:12:10.278Z,20.35
2018-10-03T15:14:38.142Z,20.53
2018-10-03T15:17:07.164Z,20.45
2018-10-03T15:19:35.163Z,20.47
2018-10-03T15:22:03.256Z,20.36
2018-10-03T15:24:31.413Z,20.33
2018-10-03T15:27:00.275Z,20.21
2018-10-03T15:29:28.262Z,20.05
2018-10-03T15:31:56.294Z,19.90
2018-10-03T15:34:24.326Z,20.03
2018-10-03T15:36:52.433Z,19.93
2018-10-03T15:39:20.475Z,19.67
2018-10-03T15:41:48.594Z,19.83
2018-10-03T15:44:18.177Z,19.98
2018-10-03T15:46:47.352Z,19.94
2018-10-03T15:49:15.510Z,19.79
2018-10-03T15:51:43.547Z,19.73
2018-10-03T15:54:11.445Z,19.63
2018-10-03T15:56:39.431Z,19.62
2018-10-03T15:59:07.427Z,19.59
2018-10-03T16:01:35.567Z,19.49
2018-10-03T16:04:03.772Z,19.56
2018-10-03T16:06:31.751Z,19.39
2018-10-03T16:09:00.359Z,18.92
2018-10-03T16:11:28.477Z,19.17
2018-10-03T16:13:56.505Z,19.15
2018-10-03T16:16:24.423Z,19.08
2018-10-03T16:18:52.360Z,19.21
2018-10-03T16:21:21.470Z,19.06
2018-10-03T16:23:50.410Z,18.92
2018-10-03T16:26:18.476Z,19.03
2018-10-03T16:28:47.348Z,18.94
2018-10-03T16:31:15.635Z,18.75
2018-10-03T16:33:43.764Z,18.63
2018-10-03T16:36:11.684Z,18.61
2018-10-03T16:38:39.795Z,18.52
2018-10-03T16:41:07.846Z,18.57
2018-10-03T16:43:37.193Z,18.59
2018-10-03T16:46:05.920Z,18.55
2018-10-03T16:48:34.087Z,18.54
2018-10-03T16:51:02.066Z,18.46
2018-10-03T16:53:30.180Z,18.80
2018-10-03T16:55:58.154Z,18.76
2018-10-03T16:58:27.689Z,18.45
2018-10-03T17:00:57.016Z,18.57
2018-10-03T17:03:25.319Z,18.34
2018-10-03T17:05:53.535Z,18.18
2018-10-03T17:08:21.472Z,18.27
2018-10-03T17:10:49.442Z,18.30
2018-10-03T17:13:17.414Z,18.41
2018-10-03T17:15:52.380Z,18.61
2018-10-03T17:18:20.398Z,18.32
2018-10-03T17:20:48.398Z,18.33
2018-10-03T17:23:16.303Z,18.20
2018-10-03T17:25:44.546Z,18.14
2018-10-03T17:28:15.518Z,18.15
2018-10-03T17:30:43.593Z,18.08
2018-10-03T17:33:11.516Z,18.11
2018-10-03T17:35:39.568Z,17.96
2018-10-03T17:38:07.536Z,17.94
2018-10-03T17:40:42.094Z,17.79
2018-10-03T17:43:10.615Z,18.02
2018-10-03T17:45:38.755Z,18.03
2018-10-03T17:48:09.450Z,17.67
2018-10-03T17:50:37.814Z,17.66
2018-10-03T17:53:08.356Z,17.68
2018-10-03T17:55:37.939Z,17.58
2018-10-03T17:58:06.950Z,17.61
2018-10-03T18:00:35.806Z,17.65
2018-10-03T18:03:04.246Z,17.43
2018-10-03T18:05:32.200Z,17.16
2018-10-03T18:08:00.171Z,17.06
2018-10-03T18:10:28.325Z,16.92
2018-10-03T18:12:56.431Z,17.02
2018-10-03T18:15:24.643Z,16.84
2018-10-03T18:17:52.597Z,16.85
2018-10-03T18:20:21.210Z,16.98
2018-10-03T18:22:51.139Z,16.81
2018-10-03T18:25:19.124Z,16.61
2018-10-03T18:27:47.242Z,16.58
2018-10-03T18:30:18.398Z,16.55
2018-10-03T18:32:47.428Z,16.47
2018-10-03T18:35:15.423Z,16.27
2018-10-03T18:37:43.337Z,16.32
2018-10-03T18:40:11.253Z,16.42
2018-10-03T18:42:39.247Z,16.35
2018-10-03T18:45:07.288Z,16.24
2018-10-03T18:47:35.177Z,16.36
2018-10-03T18:50:03.174Z,16.23
2018-10-03T18:52:32.120Z,15.94
2018-10-03T18:55:00.126Z,16.03
2018-10-03T18:57:28.217Z,16.05
2018-10-03T18:59:56.114Z,15.90
2018-10-03T19:02:23.943Z,15.97
2018-10-03T19:04:51.862Z,15.87
2018-10-03T19:07:21.699Z,15.79
2018-10-03T19:09:49.673Z,15.70
2018-10-03T19:12:17.901Z,15.80
2018-10-03T19:14:45.837Z,15.69
2018-10-03T19:17:13.876Z,15.74
2018-10-03T19:19:41.918Z,15.71
2018-10-03T19:22:10.156Z,15.80
2018-10-03T19:24:38.209Z,15.73
2018-10-03T19:27:06.129Z,15.63
2018-10-03T19:29:34.257Z,15.70
2018-10-03T19:32:02.136Z,15.68
2018-10-03T19:34:30.267Z,15.64
2018-10-03T19:36:58.252Z,15.36
2018-10-03T19:39:26.222Z,15.55
2018-10-03T19:41:54.152Z,15.50
2018-10-03T19:44:22.284Z,15.46
2018-10-03T19:46:54.208Z,15.38
2018-10-03T19:49:22.118Z,15.57
2018-10-03T19:51:51.033Z,15.63
2018-10-03T19:54:19.087Z,15.35
2018-10-03T19:56:46.974Z,15.19
2018-10-03T19:59:15.721Z,15.23
2018-10-03T20:01:43.683Z,15.38
2018-10-03T20:04:11.573Z,15.37
2018-10-03T20:06:39.784Z,15.10
2018-10-03T20:09:08.708Z,15.02
2018-10-03T20:11:36.868Z,15.11
2018-10-03T20:14:05.128Z,15.04
2018-10-03T20:16:33.138Z,15.15
2018-10-03T20:19:01.071Z,15.02
2018-10-03T20:21:29.179Z,14.74
2018-10-03T20:23:57.292Z,14.56
2018-10-03T20:26:25.272Z,14.79
2018-10-03T20:28:53.357Z,14.87
2018-10-03T20:31:23.121Z,14.75
2018-10-03T20:33:51.193Z,14.92
2018-10-03T20:36:19.145Z,14.63
2018-10-03T20:38:47.432Z,14.68
2018-10-03T20:41:15.502Z,14.68
2018-10-03T20:43:43.548Z,14.56
2018-10-03T20:46:11.495Z,14.68
2018-10-03T20:48:39.669Z,14.69
2018-10-03T20:51:07.633Z,14.53
2018-10-03T20:53:35.642Z,14.55
2018-10-03T20:56:03.540Z,14.42
2018-10-03T20:58:31.685Z,14.26
2018-10-03T21:00:59.687Z,14.08
2018-10-03T21:03:28.354Z,14.03
2018-10-03T21:05:56.343Z,13.73
2018-10-03T21:08:24.379Z,13.95
2018-10-03T21:10:52.252Z,13.99
2018-10-03T21:13:20.281Z,13.93
2018-10-03T21:15:48.371Z,13.87
2018-10-03T21:18:16.310Z,14.03
2018-10-03T21:20:44.251Z,14.11
2018-10-03T21:23:12.309Z,14.19
2018-10-03T21:25:40.281Z,14.24
2018-10-03T21:28:10.435Z,14.18
2018-10-03T21:30:38.332Z,14.05
2018-10-03T21:33:06.494Z,14.28
2018-10-03T21:35:34.444Z,14.32
2018-10-03T21:38:02.393Z,14.30
2018-10-03T21:40:30.471Z,14.20
2018-10-03T21:42:58.633Z,14.10
2018-10-03T21:45:26.735Z,14.13
2018-10-03T21:47:55.026Z,14.04
2018-10-03T21:50:24.272Z,14.02
2018-10-03T21:52:52.300Z,14.08
2018-10-03T21:55:20.987Z,14.06
2018-10-03T21:57:48.925Z,13.99
2018-10-03T22:00:16.999Z,13.80
2018-10-03T22:02:44.837Z,13.69
2018-10-03T22:05:12.788Z,13.78
2018-10-03T22:07:40.922Z,13.70
2018-10-03T22:10:09.300Z,13.72
2018-10-03T22:12:37.615Z,13.62
2018-10-03T22:15:05.699Z,13.64
2018-10-03T22:17:38.618Z,13.78
2018-10-03T22:20:07.110Z,13.78
2018-10-03T22:22:35.233Z,13.63
2018-10-03T22:25:03.149Z,13.62
2018-10-03T22:27:31.038Z,13.45
2018-10-03T22:29:59.003Z,13.42
2018-10-03T22:32:28.983Z,13.30
2018-10-03T22:34:57.029Z,13.15
2018-10-03T22:37:24.962Z,13.24
2018-10-03T22:39:52.839Z,13.11
2018-10-03T22:42:20.782Z,13.07
2018-10-03T22:44:48.773Z,13.05
2018-10-03T22:47:17.484Z,12.89
2018-10-03T22:49:45.491Z,13.13
2018-10-03T22:52:13.614Z,13.19
2018-10-03T22:54:41.983Z,13.26
2018-10-03T22:57:09.950Z,13.09
2018-10-03T22:59:37.994Z,13.19
2018-10-03T23:02:06.111Z,13.00
2018-10-03T23:04:34.445Z,12.89
2018-10-03T23:07:02.376Z,12.83
2018-10-03T23:09:30.514Z,12.77
2018-10-03T23:11:58.550Z,12.90
2018-10-03T23:14:26.482Z,12.82
2018-10-03T23:16:54.435Z,12.75
2018-10-03T23:19:22.371Z,12.73
2018-10-03T23:21:50.294Z,12.60
2018-10-03T23:24:18.245Z,12.41
2018-10-03T23:26:46.182Z,12.31
2018-10-03T23:29:14.163Z,12.35
2018-10-03T23:31:42.043Z,12.15
2018-10-03T23:34:10.101Z,12.03
2018-10-03T23:36:38.151Z,12.13
2018-10-03T23:39:09.131Z,12.03
2018-10-03T23:41:37.572Z,11.71
2018-10-03T23:44:05.584Z,11.59
2018-10-03T23:46:33.762Z,11.50
2018-10-03T23:49:01.684Z,11.35
2018-10-03T23:51:29.613Z,11.33
2018-10-03T23:53:57.682Z,11.42
2018-10-03T23:56:25.665Z,11.36
2018-10-03T23:58:53.647Z,11.49
